createdAt,value
2018-01-19T00:00:45.542Z,993.82
2018-01-19T00:01:37.700Z,993.89
2018-01-19T00:02:29.399Z,993.88
2018-01-19T00:03:10.741Z,993.91
2018-01-19T00:03:51.251Z,993.93
2018-01-19T00:04:31.583Z,993.95
2018-01-19T00:05:11.953Z,993.93
2018-01-19T00:05:52.355Z,993.95
2018-01-19T00:06:32.742Z,993.96
2018-01-19T00:07:13.163Z,993.96
2018-01-19T00:07:53.518Z,993.97
2018-01-19T00:08:33.896Z,994
2018-01-19T00:09:14.316Z,993.96
2018-01-19T00:09:54.712Z,994
2018-01-19T00:10:35.130Z,993.98
2018-01-19T00:11:15.498Z,993.96
2018-01-19T00:11:55.879Z,993.93
2018-01-19T00:12:36.341Z,993.95
2018-01-19T00:13:16.691Z,993.95
2018-01-19T00:13:57.073Z,993.94
2018-01-19T00:14:37.444Z,993.92
2018-01-19T00:15:17.879Z,993.93
2018-01-19T00:15:58.279Z,993.89
2018-01-19T00:16:38.598Z,993.89
2018-01-19T00:17:19.023Z,993.89
2018-01-19T00:17:59.440Z,993.91
2018-01-19T00:18:39.869Z,993.93
2018-01-19T00:19:20.315Z,993.93
2018-01-19T00:20:00.668Z,993.9
2018-01-19T00:20:41.078Z,993.88
2018-01-19T00:21:21.447Z,993.9
2018-01-19T00:22:01.884Z,993.91
2018-01-19T00:22:42.259Z,993.91
2018-01-19T00:23:22.677Z,993.96
2018-01-19T00:24:03.056Z,993.98
2018-01-19T00:24:43.477Z,994
2018-01-19T00:25:23.837Z,993.99
2018-01-19T00:26:04.256Z,993.99
2018-01-19T00:26:44.682Z,993.99
2018-01-19T00:27:25.026Z,993.97
2018-01-19T00:28:05.435Z,993.99
2018-01-19T00:28:45.777Z,994.01
2018-01-19T00:29:26.183Z,993.98
2018-01-19T00:30:06.616Z,993.99
2018-01-19T00:30:46.984Z,994.03
2018-01-19T00:31:27.401Z,993.99
2018-01-19T00:32:07.770Z,994.04
2018-01-19T00:32:48.220Z,994
2018-01-19T00:33:28.607Z,994.03
2018-01-19T00:34:08.998Z,994.02
2018-01-19T00:34:49.437Z,994.02
2018-01-19T00:35:29.796Z,994
2018-01-19T00:36:10.193Z,993.99
2018-01-19T00:36:50.540Z,993.99
2018-01-19T00:37:30.976Z,994
2018-01-19T00:38:11.347Z,994.01
2018-01-19T00:38:51.736Z,994.03
2018-01-19T00:39:32.153Z,994.05
2018-01-19T00:40:12.584Z,994.05
2018-01-19T00:40:52.929Z,994.04
2018-01-19T00:41:33.318Z,994.01
2018-01-19T00:42:13.751Z,994.02
2018-01-19T00:42:54.150Z,994.07
2018-01-19T00:43:34.488Z,994.05
2018-01-19T00:44:14.889Z,994.1
2018-01-19T00:44:55.410Z,994.09
2018-01-19T00:45:35.766Z,994.03
2018-01-19T00:46:16.208Z,994.08
2018-01-19T00:46:56.547Z,993.99
2018-01-19T00:47:36.958Z,994
2018-01-19T00:48:17.372Z,994
2018-01-19T00:48:57.707Z,994.02
2018-01-19T00:49:38.152Z,993.99
2018-01-19T00:50:18.507Z,994
2018-01-19T00:50:58.923Z,993.99
2018-01-19T00:51:39.242Z,993.99
2018-01-19T00:52:19.682Z,993.98
2018-01-19T00:53:00.104Z,994
2018-01-19T00:53:40.459Z,993.99
2018-01-19T00:54:20.859Z,993.98
2018-01-19T00:55:01.245Z,994.02
2018-01-19T00:55:41.615Z,993.97
2018-01-19T00:56:22.054Z,994.02
2018-01-19T00:57:02.407Z,994.03
2018-01-19T00:57:42.825Z,994.07
2018-01-19T00:58:23.219Z,994.01
2018-01-19T00:59:03.637Z,994.07
2018-01-19T00:59:44.020Z,994.08
2018-01-19T01:00:24.444Z,994.09
2018-01-19T01:01:04.826Z,994.13
2018-01-19T01:01:45.244Z,994.08
2018-01-19T01:02:25.590Z,994.16
2018-01-19T01:03:06.020Z,994.17
2018-01-19T01:03:46.391Z,994.15
2018-01-19T01:04:26.863Z,994.14
2018-01-19T01:05:07.213Z,994.12
2018-01-19T01:05:47.622Z,994.13
2018-01-19T01:06:27.970Z,994.19
2018-01-19T01:07:08.422Z,994.21
2018-01-19T01:07:48.842Z,994.27
2018-01-19T01:08:29.245Z,994.29
2018-01-19T01:09:09.590Z,994.28
2018-01-19T01:09:49.960Z,994.29
2018-01-19T01:10:30.425Z,994.3
2018-01-19T01:11:10.798Z,994.27
2018-01-19T01:11:51.122Z,994.34
2018-01-19T01:12:31.557Z,994.37
2018-01-19T01:13:12.027Z,994.29
2018-01-19T01:13:52.361Z,994.32
2018-01-19T01:14:32.780Z,994.38
2018-01-19T01:15:13.143Z,994.31
2018-01-19T01:15:53.614Z,994.31
2018-01-19T01:16:33.944Z,994.36
2018-01-19T01:17:14.359Z,994.36
2018-01-19T01:17:54.796Z,994.36
2018-01-19T01:18:35.243Z,994.34
2018-01-19T01:19:15.570Z,994.39
2018-01-19T01:19:55.961Z,994.43
2018-01-19T01:20:36.417Z,994.48
2018-01-19T01:21:16.781Z,994.51
2018-01-19T01:21:57.265Z,994.48
2018-01-19T01:22:37.610Z,994.51
2018-01-19T01:23:18.004Z,994.45
2018-01-19T01:23:58.420Z,994.56
2018-01-19T01:24:38.803Z,994.55
2018-01-19T01:25:19.182Z,994.55
2018-01-19T01:25:59.598Z,994.65
2018-01-19T01:26:40.024Z,994.69
2018-01-19T01:27:20.434Z,994.62
2018-01-19T01:28:00.840Z,994.59
2018-01-19T01:28:41.220Z,994.58
2018-01-19T01:29:21.624Z,994.6
2018-01-19T01:30:02.045Z,994.55
2018-01-19T01:30:42.412Z,994.52
2018-01-19T01:31:22.809Z,994.55
2018-01-19T01:32:03.244Z,994.54
2018-01-19T01:32:43.601Z,994.56
2018-01-19T01:33:24.026Z,994.6
2018-01-19T01:34:04.456Z,994.55
2018-01-19T01:34:44.805Z,994.5
2018-01-19T01:35:25.144Z,994.49
2018-01-19T01:36:05.643Z,994.53
2018-01-19T01:36:46.040Z,994.46
2018-01-19T01:37:26.428Z,994.56
2018-01-19T01:38:06.768Z,994.52
2018-01-19T01:38:47.196Z,994.53
2018-01-19T01:39:27.593Z,994.52
2018-01-19T01:40:07.987Z,994.51
2018-01-19T01:40:48.356Z,994.51
2018-01-19T01:41:28.813Z,994.51
2018-01-19T01:42:09.161Z,994.49
2018-01-19T01:42:49.585Z,994.52
2018-01-19T01:43:30.020Z,994.49
2018-01-19T01:44:10.401Z,994.43
2018-01-19T01:44:50.806Z,994.48
2018-01-19T01:45:31.182Z,994.43
2018-01-19T01:46:11.732Z,994.49
2018-01-19T01:46:52.133Z,994.5
2018-01-19T01:47:32.460Z,994.52
2018-01-19T01:48:12.908Z,994.46
2018-01-19T01:48:53.316Z,994.48
2018-01-19T01:49:33.659Z,994.43
2018-01-19T01:50:14.126Z,994.42
2018-01-19T01:50:54.486Z,994.43
2018-01-19T01:51:34.828Z,994.5
2018-01-19T01:52:15.225Z,994.45
2018-01-19T01:52:55.638Z,994.4
2018-01-19T01:53:36.061Z,994.45
2018-01-19T01:54:16.471Z,994.49
2018-01-19T01:54:56.864Z,994.5
2018-01-19T01:55:37.278Z,994.41
2018-01-19T01:56:17.679Z,994.48
2018-01-19T01:56:58.027Z,994.46
2018-01-19T01:57:38.432Z,994.46
2018-01-19T01:58:18.824Z,994.44
2018-01-19T01:58:59.256Z,994.45
2018-01-19T01:59:39.647Z,994.45
2018-01-19T02:00:20.021Z,994.44
2018-01-19T02:01:00.400Z,994.45
2018-01-19T02:01:40.802Z,994.39
2018-01-19T02:02:21.226Z,994.38
2018-01-19T02:03:01.662Z,994.41
2018-01-19T02:03:42.055Z,994.41
2018-01-19T02:04:22.399Z,994.43
2018-01-19T02:05:02.788Z,994.46
2018-01-19T02:05:43.220Z,994.43
2018-01-19T02:06:23.595Z,994.43
2018-01-19T02:07:04.029Z,994.4
2018-01-19T02:07:44.409Z,994.45
2018-01-19T02:08:24.868Z,994.44
2018-01-19T02:09:05.292Z,994.46
2018-01-19T02:09:45.696Z,994.42
2018-01-19T02:10:26.125Z,994.46
2018-01-19T02:11:06.453Z,994.45
2018-01-19T02:11:46.911Z,994.47
2018-01-19T02:12:27.276Z,994.48
2018-01-19T02:13:07.683Z,994.5
2018-01-19T02:13:48.104Z,994.51
2018-01-19T02:14:28.607Z,994.53
2018-01-19T02:15:08.914Z,994.59
2018-01-19T02:15:49.360Z,994.54
2018-01-19T02:16:29.743Z,994.56
2018-01-19T02:17:10.136Z,994.58
2018-01-19T02:17:50.568Z,994.55
2018-01-19T02:18:30.988Z,994.54
2018-01-19T02:19:11.372Z,994.57
2018-01-19T02:19:51.756Z,994.61
2018-01-19T02:20:32.133Z,994.58
2018-01-19T02:21:12.625Z,994.58
2018-01-19T02:21:52.927Z,994.58
2018-01-19T02:22:33.334Z,994.51
2018-01-19T02:23:13.732Z,994.54
2018-01-19T02:23:54.169Z,994.54
2018-01-19T02:24:34.528Z,994.51
2018-01-19T02:25:14.936Z,994.49
2018-01-19T02:25:55.359Z,994.51
2018-01-19T02:26:35.760Z,994.49
2018-01-19T02:27:16.136Z,994.52
2018-01-19T02:27:56.515Z,994.5
2018-01-19T02:28:37.017Z,994.53
2018-01-19T02:29:17.377Z,994.49
2018-01-19T02:29:57.811Z,994.47
2018-01-19T02:30:38.148Z,994.53
2018-01-19T02:31:18.594Z,994.48
2018-01-19T02:31:58.990Z,994.52
2018-01-19T02:32:39.387Z,994.53
2018-01-19T02:33:19.812Z,994.56
2018-01-19T02:34:00.257Z,994.52
2018-01-19T02:34:40.668Z,994.57
2018-01-19T02:35:21.056Z,994.56
2018-01-19T02:36:01.472Z,994.54
2018-01-19T02:36:41.865Z,994.59
2018-01-19T02:37:22.263Z,994.56
2018-01-19T02:38:02.672Z,994.63
2018-01-19T02:38:43.095Z,994.6
2018-01-19T02:39:23.481Z,994.61
2018-01-19T02:40:03.922Z,994.63
2018-01-19T02:40:44.356Z,994.64
2018-01-19T02:41:24.777Z,994.65
2018-01-19T02:42:05.116Z,994.69
2018-01-19T02:42:45.615Z,994.64
2018-01-19T02:43:25.995Z,994.65
2018-01-19T02:44:06.384Z,994.64
2018-01-19T02:44:46.719Z,994.63
2018-01-19T02:45:27.218Z,994.63
2018-01-19T02:46:07.551Z,994.59
2018-01-19T02:46:47.982Z,994.65
2018-01-19T02:47:28.374Z,994.62
2018-01-19T02:48:08.823Z,994.62
2018-01-19T02:48:49.206Z,994.61
2018-01-19T02:49:29.615Z,994.66
2018-01-19T02:50:10.030Z,994.63
2018-01-19T02:50:50.478Z,994.61
2018-01-19T02:51:30.885Z,994.69
2018-01-19T02:52:11.271Z,994.69
2018-01-19T02:52:51.746Z,994.66
2018-01-19T02:53:32.061Z,994.68
2018-01-19T02:54:12.499Z,994.69
2018-01-19T02:54:52.865Z,994.69
2018-01-19T02:55:33.259Z,994.7
2018-01-19T02:56:13.669Z,994.72
2018-01-19T02:56:54.122Z,994.69
2018-01-19T02:57:34.513Z,994.77
2018-01-19T02:58:14.825Z,994.79
2018-01-19T02:58:55.219Z,994.79
2018-01-19T02:59:35.620Z,994.83
2018-01-19T03:00:16.035Z,994.9
2018-01-19T03:00:56.400Z,994.86
2018-01-19T03:01:36.839Z,994.88
2018-01-19T03:02:17.244Z,994.92
2018-01-19T03:02:57.604Z,994.93
2018-01-19T03:03:38.041Z,994.94
2018-01-19T03:04:18.437Z,994.99
2018-01-19T03:04:58.930Z,994.94
2018-01-19T03:05:39.246Z,994.96
2018-01-19T03:06:19.642Z,994.96
2018-01-19T03:07:00.015Z,994.94
2018-01-19T03:07:40.441Z,994.97
2018-01-19T03:08:20.784Z,995.05
2018-01-19T03:09:01.344Z,995.1
2018-01-19T03:09:41.661Z,995.14
2018-01-19T03:10:22.104Z,995.13
2018-01-19T03:11:02.506Z,995.17
2018-01-19T03:11:42.859Z,995.2
2018-01-19T03:12:23.288Z,995.21
2018-01-19T03:13:03.697Z,995.26
2018-01-19T03:13:44.110Z,995.3
2018-01-19T03:14:24.535Z,995.28
2018-01-19T03:15:04.889Z,995.26
2018-01-19T03:15:45.899Z,995.29
2018-01-19T03:16:26.415Z,995.24
2018-01-19T03:17:06.900Z,995.02
2018-01-19T03:17:47.419Z,995.17
2018-01-19T03:18:27.806Z,995.24
2018-01-19T03:19:08.281Z,995.28
2018-01-19T03:19:48.677Z,995.33
2018-01-19T03:20:29.020Z,995.37
2018-01-19T03:21:09.489Z,995.37
2018-01-19T03:21:49.906Z,995.34
2018-01-19T03:22:30.344Z,995.37
2018-01-19T03:23:10.744Z,995.36
2018-01-19T03:23:51.105Z,995.37
2018-01-19T03:24:31.542Z,995.39
2018-01-19T03:25:12.105Z,995.46
2018-01-19T03:25:52.337Z,995.37
2018-01-19T03:26:32.698Z,995.4
2018-01-19T03:27:13.152Z,995.31
2018-01-19T03:27:53.549Z,995.31
2018-01-19T03:28:33.971Z,995.26
2018-01-19T03:29:14.397Z,995.37
2018-01-19T03:29:54.778Z,995.32
2018-01-19T03:30:35.300Z,995.23
2018-01-19T03:31:15.581Z,995.28
2018-01-19T03:31:55.994Z,995.2
2018-01-19T03:32:36.355Z,995.29
2018-01-19T03:33:16.806Z,995.31
2018-01-19T03:33:57.187Z,995.3
2018-01-19T03:34:38.012Z,995.3
2018-01-19T03:35:18.470Z,995.33
2018-01-19T03:35:58.854Z,995.11
2018-01-19T03:36:39.266Z,995.22
2018-01-19T03:37:19.756Z,995.27
2018-01-19T03:38:00.080Z,995.27
2018-01-19T03:38:40.556Z,995.3
2018-01-19T03:39:20.921Z,995.27
2018-01-19T03:40:01.298Z,995.26
2018-01-19T03:40:41.709Z,995.25
2018-01-19T03:41:22.070Z,995.25
2018-01-19T03:42:02.585Z,995.26
2018-01-19T03:42:42.924Z,995.25
2018-01-19T03:43:23.321Z,995.33
2018-01-19T03:44:03.740Z,995.29
2018-01-19T03:44:44.181Z,995.3
2018-01-19T03:45:24.574Z,995.2
2018-01-19T03:46:04.960Z,995.28
2018-01-19T03:46:45.347Z,995.32
2018-01-19T03:47:25.824Z,995.33
2018-01-19T03:48:06.196Z,995.28
2018-01-19T03:48:46.590Z,995.4
2018-01-19T03:49:27.087Z,995.3
2018-01-19T03:50:07.426Z,995.32
2018-01-19T03:50:47.840Z,995.31
2018-01-19T03:51:28.253Z,995.32
2018-01-19T03:52:08.623Z,995.36
2018-01-19T03:52:49.021Z,995.38
2018-01-19T03:53:29.359Z,995.35
2018-01-19T03:54:09.817Z,995.42
2018-01-19T03:54:50.185Z,995.44
2018-01-19T03:55:30.567Z,995.38
2018-01-19T03:56:10.984Z,995.45
2018-01-19T03:56:51.382Z,995.44
2018-01-19T03:57:31.846Z,995.44
2018-01-19T03:58:12.201Z,995.42
2018-01-19T03:58:52.577Z,995.43
2018-01-19T03:59:32.922Z,995.47
2018-01-19T04:00:13.414Z,995.33
2018-01-19T04:00:53.815Z,995.44
2018-01-19T04:01:34.352Z,995.26
2018-01-19T04:02:14.957Z,995.46
2018-01-19T04:02:55.261Z,995.3
2018-01-19T04:03:35.711Z,995.4
2018-01-19T04:41:41.931Z,995.6
2018-01-19T04:42:22.328Z,995.55
2018-01-19T04:43:02.703Z,995.61
2018-01-19T04:43:43.157Z,995.55
2018-01-19T04:46:10.453Z,995.49
2018-01-19T04:46:58.187Z,995.65
2018-01-19T04:47:38.329Z,995.57
2018-01-19T04:48:18.819Z,995.69
2018-01-19T04:48:59.198Z,995.53
2018-01-19T04:49:39.605Z,995.69
2018-01-19T04:50:19.992Z,995.73
2018-01-19T04:51:00.407Z,995.77
2018-01-19T04:51:40.840Z,995.82
2018-01-19T04:52:21.199Z,995.75
2018-01-19T04:53:01.636Z,995.82
2018-01-19T04:53:41.977Z,995.85
2018-01-19T04:54:22.483Z,995.82
2018-01-19T04:55:02.938Z,995.87
2018-01-19T04:55:43.457Z,995.93
2018-01-19T04:56:23.903Z,995.98
2018-01-19T04:57:04.240Z,995.94
2018-01-19T04:57:44.684Z,995.87
2018-01-19T04:58:25.062Z,995.87
2018-01-19T04:59:05.510Z,995.92
2018-01-19T04:59:45.891Z,995.99
2018-01-19T05:00:26.588Z,995.84
2018-01-19T05:01:06.981Z,995.95
2018-01-19T05:01:47.333Z,995.97
2018-01-19T05:02:27.749Z,995.82
2018-01-19T05:03:08.255Z,995.94
2018-01-19T05:03:48.606Z,995.98
2018-01-19T05:04:29.489Z,995.73
2018-01-19T05:05:09.804Z,995.88
2018-01-19T05:05:51.083Z,995.82
2018-01-19T05:06:31.476Z,995.89
2018-01-19T05:07:11.881Z,995.93
2018-01-19T05:07:52.320Z,995.9
2018-01-19T05:08:32.738Z,995.91
2018-01-19T05:09:13.175Z,995.99
2018-01-19T05:09:53.605Z,995.99
2018-01-19T05:10:34.022Z,996.03
2018-01-19T05:11:14.407Z,996.07
2018-01-19T05:11:54.839Z,996.07
2018-01-19T05:12:35.405Z,996.09
2018-01-19T05:13:15.829Z,996.08
2018-01-19T05:13:56.228Z,996.1
2018-01-19T05:14:36.651Z,996.13
2018-01-19T05:15:17.085Z,996.15
2018-01-19T05:15:57.450Z,996.17
2018-01-19T05:16:37.861Z,996.14
2018-01-19T05:17:18.235Z,996.05
2018-01-19T05:17:58.696Z,996.29
2018-01-19T05:18:56.856Z,996.27
2018-01-19T05:19:37.265Z,996.21
2018-01-19T05:20:17.604Z,996.29
2018-01-19T05:20:58.033Z,996.21
2018-01-19T05:21:38.484Z,996.21
2018-01-19T05:22:18.863Z,996.24
2018-01-19T05:22:59.259Z,996.28
2018-01-19T05:23:39.591Z,996.33
2018-01-19T05:24:19.999Z,996.36
2018-01-19T05:25:00.463Z,996.24
2018-01-19T05:25:40.862Z,996.3
2018-01-19T05:26:21.247Z,996.32
2018-01-19T05:27:01.555Z,996.22
2018-01-19T05:27:42.061Z,996.26
2018-01-19T05:28:22.450Z,996.28
2018-01-19T05:29:02.910Z,996.29
2018-01-19T05:29:43.330Z,996.3
2018-01-19T05:30:23.742Z,996.34
2018-01-19T05:31:04.275Z,996.1
2018-01-19T05:31:44.506Z,996.08
2018-01-19T05:32:24.897Z,996.33
2018-01-19T05:33:05.323Z,996.32
2018-01-19T05:33:45.718Z,996.19
2018-01-19T05:34:26.103Z,996.28
2018-01-19T05:35:06.565Z,996.4
2018-01-19T05:35:46.978Z,996.4
2018-01-19T05:36:27.341Z,996.36
2018-01-19T05:37:07.712Z,996.35
2018-01-19T05:37:48.137Z,996.28
2018-01-19T05:38:29.001Z,996.35
2018-01-19T05:39:09.469Z,996.44
2018-01-19T05:39:49.745Z,996.33
2018-01-19T05:40:30.292Z,996.37
2018-01-19T05:41:10.627Z,996.45
2018-01-19T05:41:51.097Z,996.41
2018-01-19T05:42:31.501Z,996.5
2018-01-19T05:43:11.866Z,996.51
2018-01-19T05:43:52.317Z,996.39
2018-01-19T05:44:32.702Z,996.43
2018-01-19T05:45:13.091Z,996.49
2018-01-19T05:45:53.423Z,996.55
2018-01-19T05:46:33.902Z,996.6
2018-01-19T05:47:14.279Z,996.34
2018-01-19T05:47:54.692Z,996.53
2018-01-19T05:48:35.058Z,996.57
2018-01-19T05:49:15.462Z,996.6
2018-01-19T05:49:56.006Z,996.49
2018-01-19T05:50:36.401Z,996.6
2018-01-19T05:51:16.789Z,996.56
2018-01-19T05:51:57.318Z,996.52
2018-01-19T05:52:38.530Z,996.47
2018-01-19T05:53:19.014Z,996.49
2018-01-19T05:53:59.750Z,996.59
2018-01-19T05:54:40.807Z,996.69
2018-01-19T05:55:21.253Z,996.56
2018-01-19T05:56:01.650Z,996.6
2018-01-19T05:56:42.029Z,996.74
2018-01-19T05:57:22.466Z,996.69
2018-01-19T05:58:02.910Z,996.71
2018-01-19T05:58:44.739Z,996.77
2018-01-19T05:59:25.043Z,996.77
2018-01-19T06:00:05.473Z,996.75
2018-01-19T06:00:45.768Z,996.82
2018-01-19T06:01:26.174Z,996.77
2018-01-19T06:03:44.715Z,996.78
2018-01-19T06:04:25.597Z,996.85
2018-01-19T06:05:06.941Z,996.89
2018-01-19T06:05:47.370Z,996.88
2018-01-19T06:06:27.745Z,996.66
2018-01-19T06:07:08.322Z,996.82
2018-01-19T06:07:48.637Z,996.92
2018-01-19T06:08:29.989Z,996.87
2018-01-19T06:09:10.362Z,996.94
2018-01-19T06:09:51.212Z,996.93
2018-01-19T06:10:31.525Z,996.86
2018-01-19T06:11:13.184Z,996.97
2018-01-19T06:11:54.047Z,996.93
2018-01-19T06:12:34.610Z,996.99
2018-01-19T06:13:16.106Z,996.91
2018-01-19T06:13:56.105Z,996.93
2018-01-19T06:15:57.855Z,997.03
2018-01-19T06:16:38.691Z,997.02
2018-01-19T06:17:19.142Z,997.08
2018-01-19T06:18:00.158Z,997.19
2018-01-19T06:18:40.572Z,997.06
2018-01-19T06:19:21.221Z,997.1
2018-01-19T06:20:01.518Z,997.13
2018-01-19T06:20:41.895Z,997.14
2018-01-19T06:21:22.334Z,997.21
2018-01-19T06:22:02.935Z,997.17
2018-01-19T06:22:43.509Z,997.18
2018-01-19T06:23:24.327Z,997.05
2018-01-19T06:24:04.728Z,997.21
2018-01-19T06:24:45.455Z,997.22
2018-01-19T06:25:26.070Z,997.25
2018-01-19T06:26:06.790Z,997.24
2018-01-19T06:26:47.311Z,997.32
2018-01-19T06:29:07.620Z,997.36
2018-01-19T06:29:49.446Z,997.33
2018-01-19T06:30:30.037Z,997.27
2018-01-19T06:31:11.617Z,997.38
2018-01-19T06:31:52.109Z,997.38
2018-01-19T06:32:33.213Z,997.41
2018-01-19T06:33:13.463Z,997.49
2018-01-19T06:33:54.312Z,997.4
2018-01-19T06:34:35.686Z,997.4
2018-01-19T06:35:17.234Z,997.48
2018-01-19T06:35:57.495Z,997.39
2018-01-19T06:36:38.289Z,997.37
2018-01-19T06:37:19.195Z,997.49
2018-01-19T06:37:59.642Z,997.48
2018-01-19T06:38:40.864Z,997.44
2018-01-19T06:39:23.139Z,997.48
2018-01-19T06:40:02.832Z,997.47
2018-01-19T06:40:43.599Z,997.5
2018-01-19T06:41:24.715Z,997.5
2018-01-19T06:42:05.124Z,997.54
2018-01-19T06:42:46.174Z,997.53
2018-01-19T06:43:27.020Z,997.48
2018-01-19T06:44:07.156Z,997.49
2018-01-19T06:44:48.358Z,997.54
2018-01-19T06:45:29.424Z,997.5
2018-01-19T06:46:09.878Z,997.47
2018-01-19T06:46:50.850Z,997.53
2018-01-19T06:47:31.717Z,997.55
2018-01-19T06:48:12.566Z,997.56
2018-01-19T06:48:53.052Z,997.52
2018-01-19T06:49:35.492Z,997.58
2018-01-19T06:50:16.893Z,997.6
2018-01-19T06:50:57.507Z,997.64
2018-01-19T06:51:38.309Z,997.56
2018-01-19T06:52:18.751Z,997.55
2018-01-19T06:52:59.458Z,997.63
2018-01-19T06:53:40.044Z,997.54
2018-01-19T06:54:21.123Z,997.6
2018-01-19T06:55:01.709Z,997.56
2018-01-19T06:55:42.403Z,997.65
2018-01-19T06:56:23.339Z,997.55
2018-01-19T06:57:05.023Z,997.63
2018-01-19T06:57:45.493Z,997.58
2018-01-19T06:58:26.109Z,997.71
2018-01-19T06:59:08.612Z,997.69
2018-01-19T06:59:49.296Z,997.61
2018-01-19T07:00:30.239Z,997.69
2018-01-19T07:01:10.751Z,997.75
2018-01-19T07:01:51.442Z,997.72
2018-01-19T07:02:31.731Z,997.74
2018-01-19T07:03:12.191Z,997.6
2018-01-19T07:03:52.943Z,997.73
2018-01-19T07:04:33.980Z,997.77
2018-01-19T07:05:15.214Z,997.74
2018-01-19T07:05:55.563Z,997.8
2018-01-19T07:06:37.745Z,997.72
2018-01-19T07:07:18.688Z,997.87
2018-01-19T07:07:59.579Z,997.9
2018-01-19T07:08:39.617Z,997.94
2018-01-19T07:09:20.032Z,997.92
2018-01-19T07:10:00.602Z,997.9
2018-01-19T07:10:41.858Z,997.83
2018-01-19T07:11:22.208Z,997.91
2018-01-19T07:12:02.765Z,997.91
2018-01-19T07:12:43.424Z,997.91
2018-01-19T07:13:23.854Z,997.88
2018-01-19T07:14:04.346Z,997.9
2018-01-19T07:14:46.090Z,997.95
2018-01-19T07:15:26.277Z,997.95
2018-01-19T07:16:07.627Z,997.97
2018-01-19T07:16:49.490Z,997.99
2018-01-19T07:17:29.970Z,997.99
2018-01-19T07:18:11.507Z,997.97
2018-01-19T07:18:52.438Z,998
2018-01-19T07:19:34.618Z,998.01
2018-01-19T07:20:15.105Z,998.08
2018-01-19T07:20:57.289Z,998.02
2018-01-19T07:21:37.648Z,998.06
2018-01-19T07:22:18.622Z,998.01
2018-01-19T07:23:00.955Z,998
2018-01-19T07:23:41.508Z,998.16
2018-01-19T07:24:22.009Z,998.12
2018-01-19T07:25:02.745Z,998.13
2018-01-19T07:25:44.362Z,998.16
2018-01-19T07:26:25.551Z,998.05
2018-01-19T07:27:05.865Z,998.24
2018-01-19T07:27:46.591Z,998.23
2018-01-19T07:28:27.342Z,998.23
2018-01-19T07:29:07.859Z,998.18
2018-01-19T07:29:49.293Z,998.2
2018-01-19T07:30:30.540Z,998.21
2018-01-19T07:31:10.920Z,998.23
2018-01-19T07:31:52.976Z,998.29
2018-01-19T07:32:34.148Z,998.2
2018-01-19T07:33:15.151Z,998.25
2018-01-19T07:33:55.784Z,998.23
2018-01-19T07:34:36.244Z,998.27
2018-01-19T07:35:19.040Z,998.28
2018-01-19T07:35:59.508Z,998.31
2018-01-19T07:36:40.444Z,998.32
2018-01-19T07:37:23.946Z,998.33
2018-01-19T07:38:03.970Z,998.31
2018-01-19T07:38:45.099Z,998.33
2018-01-19T07:39:27.063Z,998.26
2018-01-19T07:40:07.412Z,998.21
2018-01-19T07:40:47.925Z,998.38
2018-01-19T07:41:28.467Z,998.36
2018-01-19T07:42:08.909Z,998.32
2018-01-19T07:42:49.881Z,998.31
2018-01-19T07:43:33.238Z,998.4
2018-01-19T07:44:14.292Z,998.38
2018-01-19T07:44:55.471Z,998.43
2018-01-19T07:45:36.317Z,998.42
2018-01-19T07:46:17.724Z,998.18
2018-01-19T07:46:59.187Z,998.42
2018-01-19T07:47:39.753Z,998.44
2018-01-19T07:48:21.251Z,998.46
2018-01-19T07:49:01.919Z,998.48
2018-01-19T07:49:42.594Z,998.47
2018-01-19T07:50:23.043Z,998.49
2018-01-19T07:51:04.373Z,998.47
2018-01-19T07:51:45.295Z,998.48
2018-01-19T07:52:26.198Z,998.5
2018-01-19T07:53:07.251Z,998.53
2018-01-19T07:53:48.543Z,998.47
2018-01-19T07:54:28.336Z,998.46
2018-01-19T07:55:08.771Z,998.55
2018-01-19T07:55:49.370Z,998.5
2018-01-19T07:56:29.875Z,998.52
2018-01-19T07:57:10.359Z,998.59
2018-01-19T07:57:51.144Z,998.61
2018-01-19T07:58:33.206Z,998.62
2018-01-19T07:59:13.549Z,998.57
2018-01-19T07:59:54.158Z,998.69
2018-01-19T08:00:34.742Z,998.64
2018-01-19T08:01:15.527Z,998.66
2018-01-19T08:01:56.153Z,998.61
2018-01-19T08:02:37.317Z,998.7
2018-01-19T08:03:17.790Z,998.63
2018-01-19T08:03:58.198Z,998.73
2018-01-19T08:04:38.692Z,998.72
2018-01-19T08:05:20.064Z,998.75
2018-01-19T08:06:01.239Z,998.74
2018-01-19T08:06:42.272Z,998.69
2018-01-19T08:07:23.707Z,998.75
2018-01-19T08:08:04.625Z,998.79
2018-01-19T08:08:46.865Z,998.78
2018-01-19T08:09:27.992Z,998.8
2018-01-19T08:10:09.424Z,998.84
2018-01-19T08:10:49.985Z,998.85
2018-01-19T08:11:31.439Z,998.86
2018-01-19T08:12:12.195Z,998.84
2018-01-19T08:12:53.510Z,998.77
2018-01-19T08:13:36.171Z,998.79
2018-01-19T08:14:16.542Z,998.89
2018-01-19T08:14:57.376Z,998.9
2018-01-19T08:15:38.474Z,998.83
2018-01-19T08:16:19.626Z,998.83
2018-01-19T08:17:00.209Z,998.89
2018-01-19T08:17:40.650Z,998.82
2018-01-19T08:18:21.143Z,998.91
2018-01-19T08:19:01.922Z,998.89
2018-01-19T08:19:42.583Z,998.89
2018-01-19T08:20:22.916Z,998.84
2018-01-19T08:21:04.251Z,998.87
2018-01-19T08:21:45.062Z,998.92
2018-01-19T08:22:25.774Z,998.9
2018-01-19T08:23:07.052Z,998.84
2018-01-19T08:26:06.984Z,998.98
2018-01-19T08:26:57.154Z,998.98
2018-01-19T08:27:37.476Z,998.98
2018-01-19T08:28:18.148Z,998.95
2018-01-19T08:28:58.721Z,998.94
2018-01-19T08:29:39.293Z,998.91
2018-01-19T08:30:20.306Z,999.02
2018-01-19T08:31:01.818Z,998.91
2018-01-19T08:31:42.122Z,998.99
2018-01-19T08:32:22.663Z,998.98
2018-01-19T08:33:03.609Z,998.99
2018-01-19T08:33:44.504Z,999.05
2018-01-19T08:34:25.783Z,999.01
2018-01-19T08:35:06.219Z,999.01
2018-01-19T08:35:48.917Z,999
2018-01-19T08:36:32.719Z,998.86
2018-01-19T08:37:13.938Z,999.05
2018-01-19T08:37:54.695Z,999.06
2018-01-19T08:38:36.046Z,998.99
2018-01-19T08:39:17.706Z,999.05
2018-01-19T08:39:58.144Z,999.06
2018-01-19T08:40:39.129Z,999.03
2018-01-19T08:41:19.416Z,999.15
2018-01-19T08:41:59.802Z,999.21
2018-01-19T08:42:40.992Z,999.27
2018-01-19T08:43:21.358Z,999.24
2018-01-19T08:44:01.973Z,999.27
2018-01-19T08:44:43.110Z,999.28
2018-01-19T08:45:23.510Z,999.32
2018-01-19T08:46:04.454Z,999.35
2018-01-19T08:46:45.482Z,999.36
2018-01-19T08:47:26.144Z,999.41
2018-01-19T08:48:07.342Z,999.44
2018-01-19T08:48:47.894Z,999.4
2018-01-19T08:49:28.699Z,999.35
2018-01-19T08:50:09.996Z,999.38
2018-01-19T08:50:51.376Z,999.42
2018-01-19T08:51:35.215Z,999.43
2018-01-19T08:52:16.717Z,999.41
2018-01-19T08:52:57.286Z,999.38
2018-01-19T08:53:37.593Z,999.43
2018-01-19T08:54:18.314Z,999.38
2018-01-19T08:54:58.788Z,999.43
2018-01-19T08:55:40.052Z,999.44
2018-01-19T08:56:20.850Z,999.4
2018-01-19T08:57:03.968Z,999.36
2018-01-19T08:57:47.977Z,999.42
2018-01-19T08:58:29.365Z,999.43
2018-01-19T08:59:10.067Z,999.5
2018-01-19T08:59:51.493Z,999.41
2018-01-19T09:00:34.533Z,999.4
2018-01-19T09:01:16.322Z,999.4
2018-01-19T09:01:56.524Z,999.38
2018-01-19T09:02:37.316Z,999.42
2018-01-19T09:03:18.574Z,999.45
2018-01-19T09:03:59.278Z,999.51
2018-01-19T09:04:40.100Z,999.47
2018-01-19T09:05:24.088Z,999.52
2018-01-19T09:09:25.815Z,999.56
2018-01-19T09:10:14.262Z,999.53
2018-01-19T09:11:04.764Z,999.58
2018-01-19T09:11:52.855Z,999.59
2018-01-19T09:12:34.101Z,999.61
2018-01-19T09:13:19.332Z,999.61
2018-01-19T09:14:07.797Z,999.63
2018-01-19T09:14:48.380Z,999.57
2018-01-19T09:15:34.596Z,999.62
2018-01-19T09:16:22.826Z,999.62
2018-01-19T09:17:08.769Z,999.6
2018-01-19T09:17:57.685Z,999.57
2018-01-19T09:18:45.215Z,999.61
2018-01-19T09:21:09.074Z,999.55
2018-01-19T09:21:56.463Z,999.62
2018-01-19T09:22:44.502Z,999.61